sensor_id;sensor_type;location;lat;lon;timestamp;P1;durP1;ratioP1;P2;durP2;ratioP2
67986;SDS011;54767;53.800;15.956;2023-08-01T00:02:52;4.90;;;3.10;;
67986;SDS011;54767;53.800;15.956;2023-08-01T00:06:38;7.50;;;3.00;;
67986;SDS011;54767;53.800;15.956;2023-08-01T00:09:31;5.20;;;3.20;;
67986;SDS011;54767;53.800;15.956;2023-08-01T00:12:28;6.10;;;2.80;;
67986;SDS011;54767;53.800;15.956;2023-08-01T00:15:20;4.50;;;2.90;;
67986;SDS011;54767;53.800;15.956;2023-08-01T00:19:12;5.40;;;3.00;;
67986;SDS011;54767;53.800;15.956;2023-08-01T00:21:59;4.20;;;2.90;;
67986;SDS011;54767;53.800;15.956;2023-08-01T00:24:28;4.60;;;3.20;;
67986;SDS011;54767;53.800;15.956;2023-08-01T00:26:56;4.40;;;3.00;;
67986;SDS011;54767;53.800;15.956;2023-08-01T00:29:24;6.10;;;3.30;;
67986;SDS011;54767;53.800;15.956;2023-08-01T00:31:53;4.40;;;3.10;;
67986;SDS011;54767;53.800;15.956;2023-08-01T00:34:21;5.50;;;3.10;;
67986;SDS011;54767;53.800;15.956;2023-08-01T00:36:50;5.10;;;3.00;;
67986;SDS011;54767;53.800;15.956;2023-08-01T00:39:18;5.70;;;3.20;;
67986;SDS011;54767;53.800;15.956;2023-08-01T00:41:49;6.00;;;3.30;;
67986;SDS011;54767;53.800;15.956;2023-08-01T00:44:17;5.70;;;3.30;;
67986;SDS011;54767;53.800;15.956;2023-08-01T00:46:46;6.00;;;3.20;;
67986;SDS011;54767;53.800;15.956;2023-08-01T00:49:15;3.50;;;3.00;;
67986;SDS011;54767;53.800;15.956;2023-08-01T00:51:43;9.10;;;4.10;;
67986;SDS011;54767;53.800;15.956;2023-08-01T00:54:13;5.10;;;3.10;;
67986;SDS011;54767;53.800;15.956;2023-08-01T00:56:43;4.80;;;3.10;;
67986;SDS011;54767;53.800;15.956;2023-08-01T01:01:41;6.00;;;3.40;;
67986;SDS011;54767;53.800;15.956;2023-08-01T01:04:10;3.00;;;2.70;;
67986;SDS011;54767;53.800;15.956;2023-08-01T01:06:44;6.40;;;3.30;;
67986;SDS011;54767;53.800;15.956;2023-08-01T01:09:16;3.50;;;3.10;;
67986;SDS011;54767;53.800;15.956;2023-08-01T01:11:45;5.00;;;3.50;;
67986;SDS011;54767;53.800;15.956;2023-08-01T01:14:14;5.10;;;3.40;;
67986;SDS011;54767;53.800;15.956;2023-08-01T01:19:12;7.60;;;3.60;;
67986;SDS011;54767;53.800;15.956;2023-08-01T01:21:40;4.10;;;3.20;;
67986;SDS011;54767;53.800;15.956;2023-08-01T01:24:11;5.70;;;3.20;;
67986;SDS011;54767;53.800;15.956;2023-08-01T01:26:41;7.80;;;3.40;;
67986;SDS011;54767;53.800;15.956;2023-08-01T01:29:11;5.40;;;3.50;;
67986;SDS011;54767;53.800;15.956;2023-08-01T01:31:41;5.00;;;3.40;;
67986;SDS011;54767;53.800;15.956;2023-08-01T01:34:09;4.80;;;3.40;;
67986;SDS011;54767;53.800;15.956;2023-08-01T01:36:38;5.20;;;3.30;;
67986;SDS011;54767;53.800;15.956;2023-08-01T01:39:07;5.70;;;3.60;;
67986;SDS011;54767;53.800;15.956;2023-08-01T01:41:35;5.80;;;3.10;;
67986;SDS011;54767;53.800;15.956;2023-08-01T01:44:03;6.90;;;3.30;;
67986;SDS011;54767;53.800;15.956;2023-08-01T01:46:32;7.50;;;3.70;;
67986;SDS011;54767;53.800;15.956;2023-08-01T01:49:00;4.90;;;3.50;;
67986;SDS011;54767;53.800;15.956;2023-08-01T01:51:29;5.30;;;3.40;;
67986;SDS011;54767;53.800;15.956;2023-08-01T01:53:58;4.90;;;3.60;;
67986;SDS011;54767;53.800;15.956;2023-08-01T01:56:26;7.50;;;3.80;;
67986;SDS011;54767;53.800;15.956;2023-08-01T01:58:55;5.60;;;3.60;;
67986;SDS011;54767;53.800;15.956;2023-08-01T02:01:23;7.50;;;3.70;;
67986;SDS011;54767;53.800;15.956;2023-08-01T02:03:52;6.90;;;3.80;;
67986;SDS011;54767;53.800;15.956;2023-08-01T02:06:21;9.00;;;3.70;;
67986;SDS011;54767;53.800;15.956;2023-08-01T02:08:49;6.70;;;3.50;;
67986;SDS011;54767;53.800;15.956;2023-08-01T02:11:17;7.60;;;3.40;;
67986;SDS011;54767;53.800;15.956;2023-08-01T02:13:46;7.10;;;3.70;;
67986;SDS011;54767;53.800;15.956;2023-08-01T02:16:14;6.50;;;4.00;;
67986;SDS011;54767;53.800;15.956;2023-08-01T02:18:43;6.00;;;3.90;;
67986;SDS011;54767;53.800;15.956;2023-08-01T02:21:11;5.10;;;3.40;;
67986;SDS011;54767;53.800;15.956;2023-08-01T02:23:39;5.00;;;3.60;;
67986;SDS011;54767;53.800;15.956;2023-08-01T02:26:08;4.50;;;3.50;;
67986;SDS011;54767;53.800;15.956;2023-08-01T02:28:41;5.60;;;3.90;;
67986;SDS011;54767;53.800;15.956;2023-08-01T02:31:09;4.60;;;3.50;;
67986;SDS011;54767;53.800;15.956;2023-08-01T02:33:41;6.00;;;3.60;;
67986;SDS011;54767;53.800;15.956;2023-08-01T02:36:14;5.80;;;3.60;;
67986;SDS011;54767;53.800;15.956;2023-08-01T02:38:45;3.80;;;3.10;;
67986;SDS011;54767;53.800;15.956;2023-08-01T02:41:37;6.00;;;3.60;;
67986;SDS011;54767;53.800;15.956;2023-08-01T02:44:10;6.20;;;3.70;;
67986;SDS011;54767;53.800;15.956;2023-08-01T02:46:41;6.00;;;3.70;;
67986;SDS011;54767;53.800;15.956;2023-08-01T02:49:13;8.70;;;3.80;;
67986;SDS011;54767;53.800;15.956;2023-08-01T02:51:42;4.50;;;3.70;;
67986;SDS011;54767;53.800;15.956;2023-08-01T02:54:25;5.50;;;3.70;;
67986;SDS011;54767;53.800;15.956;2023-08-01T02:59:38;7.40;;;4.10;;
67986;SDS011;54767;53.800;15.956;2023-08-01T03:02:12;5.70;;;3.60;;
67986;SDS011;54767;53.800;15.956;2023-08-01T03:04:40;6.00;;;3.70;;
67986;SDS011;54767;53.800;15.956;2023-08-01T03:07:14;6.00;;;3.90;;
67986;SDS011;54767;53.800;15.956;2023-08-01T03:09:42;6.30;;;3.30;;
67986;SDS011;54767;53.800;15.956;2023-08-01T03:12:10;5.20;;;3.60;;
67986;SDS011;54767;53.800;15.956;2023-08-01T03:14:39;7.30;;;3.90;;
67986;SDS011;54767;53.800;15.956;2023-08-01T03:17:09;5.40;;;3.90;;
67986;SDS011;54767;53.800;15.956;2023-08-01T03:20:11;5.90;;;3.40;;
67986;SDS011;54767;53.800;15.956;2023-08-01T03:22:52;6.70;;;3.90;;
67986;SDS011;54767;53.800;15.956;2023-08-01T03:28:11;7.20;;;3.90;;
67986;SDS011;54767;53.800;15.956;2023-08-01T03:31:17;5.40;;;3.80;;
67986;SDS011;54767;53.800;15.956;2023-08-01T03:34:19;7.30;;;3.80;;
67986;SDS011;54767;53.800;15.956;2023-08-01T03:36:47;7.10;;;4.10;;
67986;SDS011;54767;53.800;15.956;2023-08-01T03:39:16;5.10;;;3.70;;
67986;SDS011;54767;53.800;15.956;2023-08-01T03:41:44;7.90;;;3.70;;
67986;SDS011;54767;53.800;15.956;2023-08-01T03:44:12;8.40;;;4.40;;
67986;SDS011;54767;53.800;15.956;2023-08-01T03:46:41;5.90;;;4.10;;
67986;SDS011;54767;53.800;15.956;2023-08-01T03:49:10;5.10;;;4.00;;
67986;SDS011;54767;53.800;15.956;2023-08-01T03:51:38;8.00;;;3.80;;
67986;SDS011;54767;53.800;15.956;2023-08-01T03:54:06;8.00;;;3.90;;
67986;SDS011;54767;53.800;15.956;2023-08-01T03:56:41;7.30;;;4.40;;
67986;SDS011;54767;53.800;15.956;2023-08-01T03:59:12;9.00;;;4.00;;
67986;SDS011;54767;53.800;15.956;2023-08-01T04:01:42;6.30;;;4.10;;
67986;SDS011;54767;53.800;15.956;2023-08-01T04:04:10;5.30;;;3.70;;
67986;SDS011;54767;53.800;15.956;2023-08-01T04:06:39;6.70;;;3.80;;
67986;SDS011;54767;53.800;15.956;2023-08-01T04:09:08;7.30;;;4.20;;
67986;SDS011;54767;53.800;15.956;2023-08-01T04:11:36;6.90;;;4.40;;
67986;SDS011;54767;53.800;15.956;2023-08-01T04:14:24;6.00;;;4.20;;
67986;SDS011;54767;53.800;15.956;2023-08-01T04:16:52;6.80;;;4.20;;
67986;SDS011;54767;53.800;15.956;2023-08-01T04:19:21;6.10;;;4.10;;
67986;SDS011;54767;53.800;15.956;2023-08-01T04:21:53;6.70;;;3.80;;
67986;SDS011;54767;53.800;15.956;2023-08-01T04:24:23;5.90;;;3.90;;
67986;SDS011;54767;53.800;15.956;2023-08-01T04:26:53;6.20;;;4.10;;
67986;SDS011;54767;53.800;15.956;2023-08-01T04:29:22;5.50;;;4.00;;
67986;SDS011;54767;53.800;15.956;2023-08-01T04:34:57;5.40;;;3.40;;
67986;SDS011;54767;53.800;15.956;2023-08-01T04:37:46;5.50;;;3.50;;
67986;SDS011;54767;53.800;15.956;2023-08-01T04:40:14;5.60;;;3.20;;
67986;SDS011;54767;53.800;15.956;2023-08-01T04:43:01;3.30;;;2.90;;
67986;SDS011;54767;53.800;15.956;2023-08-01T04:45:30;3.60;;;2.60;;
67986;SDS011;54767;53.800;15.956;2023-08-01T04:47:58;3.00;;;2.80;;
67986;SDS011;54767;53.800;15.956;2023-08-01T04:50:31;3.90;;;2.40;;
67986;SDS011;54767;53.800;15.956;2023-08-01T04:53:18;2.60;;;2.20;;
67986;SDS011;54767;53.800;15.956;2023-08-01T04:55:55;2.70;;;2.30;;
67986;SDS011;54767;53.800;15.956;2023-08-01T04:59:10;2.90;;;2.30;;
67986;SDS011;54767;53.800;15.956;2023-08-01T05:02:19;3.10;;;2.20;;
67986;SDS011;54767;53.800;15.956;2023-08-01T05:04:49;2.50;;;2.30;;
67986;SDS011;54767;53.800;15.956;2023-08-01T05:07:20;3.40;;;2.60;;
67986;SDS011;54767;53.800;15.956;2023-08-01T05:10:10;3.70;;;2.40;;
67986;SDS011;54767;53.800;15.956;2023-08-01T05:13:00;2.70;;;2.50;;
67986;SDS011;54767;53.800;15.956;2023-08-01T05:15:47;4.40;;;2.50;;
67986;SDS011;54767;53.800;15.956;2023-08-01T05:18:35;4.30;;;2.40;;
67986;SDS011;54767;53.800;15.956;2023-08-01T05:21:12;3.40;;;2.60;;
67986;SDS011;54767;53.800;15.956;2023-08-01T05:23:49;4.40;;;2.50;;
67986;SDS011;54767;53.800;15.956;2023-08-01T05:26:21;4.40;;;2.40;;
67986;SDS011;54767;53.800;15.956;2023-08-01T05:28:49;2.40;;;2.20;;
67986;SDS011;54767;53.800;15.956;2023-08-01T05:31:20;2.40;;;2.20;;
67986;SDS011;54767;53.800;15.956;2023-08-01T05:33:50;2.40;;;2.20;;
67986;SDS011;54767;53.800;15.956;2023-08-01T05:36:19;3.10;;;2.10;;
67986;SDS011;54767;53.800;15.956;2023-08-01T05:39:15;2.40;;;1.90;;
67986;SDS011;54767;53.800;15.956;2023-08-01T05:41:44;2.20;;;2.00;;
67986;SDS011;54767;53.800;15.956;2023-08-01T05:44:37;2.50;;;2.30;;
67986;SDS011;54767;53.800;15.956;2023-08-01T05:47:05;2.50;;;2.30;;
67986;SDS011;54767;53.800;15.956;2023-08-01T05:49:41;2.60;;;2.40;;
67986;SDS011;54767;53.800;15.956;2023-08-01T05:52:09;2.80;;;2.60;;
67986;SDS011;54767;53.800;15.956;2023-08-01T05:55:01;3.20;;;2.60;;
67986;SDS011;54767;53.800;15.956;2023-08-01T05:57:37;4.10;;;2.80;;
67986;SDS011;54767;53.800;15.956;2023-08-01T06:00:08;2.90;;;2.70;;
67986;SDS011;54767;53.800;15.956;2023-08-01T06:02:37;3.60;;;2.80;;
67986;SDS011;54767;53.800;15.956;2023-08-01T06:05:10;3.90;;;3.00;;
67986;SDS011;54767;53.800;15.956;2023-08-01T06:07:38;5.50;;;2.90;;
67986;SDS011;54767;53.800;15.956;2023-08-01T06:10:15;3.90;;;2.80;;
67986;SDS011;54767;53.800;15.956;2023-08-01T06:12:44;5.00;;;3.20;;
67986;SDS011;54767;53.800;15.956;2023-08-01T06:15:13;5.00;;;3.00;;
67986;SDS011;54767;53.800;15.956;2023-08-01T06:17:42;3.80;;;3.10;;
67986;SDS011;54767;53.800;15.956;2023-08-01T06:20:51;4.50;;;2.90;;
67986;SDS011;54767;53.800;15.956;2023-08-01T06:23:22;4.40;;;3.20;;
67986;SDS011;54767;53.800;15.956;2023-08-01T06:26:07;5.10;;;3.30;;
67986;SDS011;54767;53.800;15.956;2023-08-01T06:29:03;3.20;;;2.80;;
67986;SDS011;54767;53.800;15.956;2023-08-01T06:31:33;5.60;;;3.20;;
67986;SDS011;54767;53.800;15.956;2023-08-01T06:34:02;4.90;;;3.20;;
67986;SDS011;54767;53.800;15.956;2023-08-01T06:36:31;3.80;;;3.20;;
67986;SDS011;54767;53.800;15.956;2023-08-01T06:41:29;4.40;;;3.60;;
67986;SDS011;54767;53.800;15.956;2023-08-01T06:44:34;3.40;;;3.00;;
67986;SDS011;54767;53.800;15.956;2023-08-01T06:47:03;5.20;;;3.20;;
67986;SDS011;54767;53.800;15.956;2023-08-01T06:49:32;4.10;;;3.30;;
67986;SDS011;54767;53.800;15.956;2023-08-01T06:52:02;6.20;;;3.50;;
67986;SDS011;54767;53.800;15.956;2023-08-01T06:54:46;4.70;;;3.20;;
67986;SDS011;54767;53.800;15.956;2023-08-01T06:57:23;3.70;;;3.00;;
67986;SDS011;54767;53.800;15.956;2023-08-01T06:59:52;3.20;;;2.80;;
67986;SDS011;54767;53.800;15.956;2023-08-01T07:02:21;4.00;;;3.00;;
67986;SDS011;54767;53.800;15.956;2023-08-01T07:04:51;3.40;;;3.00;;
67986;SDS011;54767;53.800;15.956;2023-08-01T07:07:19;3.40;;;3.10;;
67986;SDS011;54767;53.800;15.956;2023-08-01T07:09:48;4.30;;;2.80;;
67986;SDS011;54767;53.800;15.956;2023-08-01T07:12:38;3.20;;;2.90;;
67986;SDS011;54767;53.800;15.956;2023-08-01T07:15:07;3.10;;;2.80;;
67986;SDS011;54767;53.800;15.956;2023-08-01T07:17:37;3.00;;;2.70;;
67986;SDS011;54767;53.800;15.956;2023-08-01T07:20:06;3.30;;;3.00;;
67986;SDS011;54767;53.800;15.956;2023-08-01T07:22:34;3.30;;;2.60;;
67986;SDS011;54767;53.800;15.956;2023-08-01T07:25:11;2.60;;;2.40;;
67986;SDS011;54767;53.800;15.956;2023-08-01T07:27:40;2.50;;;2.30;;
67986;SDS011;54767;53.800;15.956;2023-08-01T07:30:09;2.60;;;2.40;;
67986;SDS011;54767;53.800;15.956;2023-08-01T07:32:41;2.30;;;2.10;;
67986;SDS011;54767;53.800;15.956;2023-08-01T07:35:12;4.70;;;2.30;;
67986;SDS011;54767;53.800;15.956;2023-08-01T07:37:42;2.90;;;2.40;;
67986;SDS011;54767;53.800;15.956;2023-08-01T07:40:13;2.60;;;2.40;;
67986;SDS011;54767;53.800;15.956;2023-08-01T07:42:45;2.90;;;2.60;;
67986;SDS011;54767;53.800;15.956;2023-08-01T07:45:15;3.40;;;2.30;;
67986;SDS011;54767;53.800;15.956;2023-08-01T07:47:48;2.80;;;2.60;;
67986;SDS011;54767;53.800;15.956;2023-08-01T07:50:25;3.00;;;2.70;;
67986;SDS011;54767;53.800;15.956;2023-08-01T07:52:55;2.60;;;2.30;;
67986;SDS011;54767;53.800;15.956;2023-08-01T07:55:23;2.80;;;2.60;;
67986;SDS011;54767;53.800;15.956;2023-08-01T07:57:53;2.80;;;2.60;;
67986;SDS011;54767;53.800;15.956;2023-08-01T08:00:23;2.80;;;2.60;;
67986;SDS011;54767;53.800;15.956;2023-08-01T08:02:53;3.10;;;2.70;;
67986;SDS011;54767;53.800;15.956;2023-08-01T08:05:23;4.20;;;2.80;;
67986;SDS011;54767;53.800;15.956;2023-08-01T08:08:07;3.70;;;2.90;;
67986;SDS011;54767;53.800;15.956;2023-08-01T08:10:47;4.60;;;2.90;;
67986;SDS011;54767;53.800;15.956;2023-08-01T08:13:20;3.10;;;2.80;;
67986;SDS011;54767;53.800;15.956;2023-08-01T08:15:54;3.80;;;3.00;;
67986;SDS011;54767;53.800;15.956;2023-08-01T08:18:26;4.80;;;3.20;;
67986;SDS011;54767;53.800;15.956;2023-08-01T08:20:58;4.30;;;3.10;;
67986;SDS011;54767;53.800;15.956;2023-08-01T08:23:29;3.90;;;3.40;;
67986;SDS011;54767;53.800;15.956;2023-08-01T08:26:00;3.70;;;3.30;;
67986;SDS011;54767;53.800;15.956;2023-08-01T08:28:33;3.20;;;3.00;;
67986;SDS011;54767;53.800;15.956;2023-08-01T08:31:03;4.60;;;3.30;;
67986;SDS011;54767;53.800;15.956;2023-08-01T08:33:32;8.40;;;3.70;;
67986;SDS011;54767;53.800;15.956;2023-08-01T08:36:04;3.60;;;3.30;;
67986;SDS011;54767;53.800;15.956;2023-08-01T08:38:33;4.60;;;3.30;;
67986;SDS011;54767;53.800;15.956;2023-08-01T08:41:08;3.90;;;3.40;;
67986;SDS011;54767;53.800;15.956;2023-08-01T08:43:39;5.00;;;3.70;;
67986;SDS011;54767;53.800;15.956;2023-08-01T08:46:09;5.40;;;3.70;;
67986;SDS011;54767;53.800;15.956;2023-08-01T08:48:39;4.20;;;3.20;;
67986;SDS011;54767;53.800;15.956;2023-08-01T08:51:09;5.40;;;3.80;;
67986;SDS011;54767;53.800;15.956;2023-08-01T08:53:41;4.10;;;3.40;;
67986;SDS011;54767;53.800;15.956;2023-08-01T08:56:12;5.00;;;3.70;;
67986;SDS011;54767;53.800;15.956;2023-08-01T08:58:42;5.50;;;4.00;;
67986;SDS011;54767;53.800;15.956;2023-08-01T09:03:40;6.40;;;4.50;;
67986;SDS011;54767;53.800;15.956;2023-08-01T09:06:11;5.40;;;4.00;;
67986;SDS011;54767;53.800;15.956;2023-08-01T09:09:01;4.70;;;3.90;;
67986;SDS011;54767;53.800;15.956;2023-08-01T09:11:39;4.90;;;3.80;;
67986;SDS011;54767;53.800;15.956;2023-08-01T09:14:17;4.80;;;3.80;;
67986;SDS011;54767;53.800;15.956;2023-08-01T09:19:19;6.30;;;3.90;;
67986;SDS011;54767;53.800;15.956;2023-08-01T09:21:49;6.90;;;4.10;;
67986;SDS011;54767;53.800;15.956;2023-08-01T09:26:49;5.20;;;4.10;;
67986;SDS011;54767;53.800;15.956;2023-08-01T09:29:17;4.90;;;4.00;;
67986;SDS011;54767;53.800;15.956;2023-08-01T09:31:48;5.50;;;3.90;;
67986;SDS011;54767;53.800;15.956;2023-08-01T09:34:21;5.50;;;3.90;;
67986;SDS011;54767;53.800;15.956;2023-08-01T09:36:56;4.40;;;3.60;;
67986;SDS011;54767;53.800;15.956;2023-08-01T09:39:26;4.50;;;4.10;;
67986;SDS011;54767;53.800;15.956;2023-08-01T09:41:58;4.80;;;3.70;;
67986;SDS011;54767;53.800;15.956;2023-08-01T09:44:28;5.00;;;3.90;;
67986;SDS011;54767;53.800;15.956;2023-08-01T09:46:57;5.00;;;3.80;;
67986;SDS011;54767;53.800;15.956;2023-08-01T09:49:30;5.60;;;3.90;;
67986;SDS011;54767;53.800;15.956;2023-08-01T09:51:59;4.10;;;3.70;;
67986;SDS011;54767;53.800;15.956;2023-08-01T09:54:29;5.60;;;3.90;;
67986;SDS011;54767;53.800;15.956;2023-08-01T09:56:57;5.00;;;3.80;;
67986;SDS011;54767;53.800;15.956;2023-08-01T09:59:27;5.20;;;3.60;;
67986;SDS011;54767;53.800;15.956;2023-08-01T10:02:00;4.10;;;3.70;;
67986;SDS011;54767;53.800;15.956;2023-08-01T10:04:30;4.70;;;3.50;;
67986;SDS011;54767;53.800;15.956;2023-08-01T10:09:31;4.50;;;4.00;;
67986;SDS011;54767;53.800;15.956;2023-08-01T10:12:01;5.10;;;4.10;;
67986;SDS011;54767;53.800;15.956;2023-08-01T10:17:04;4.90;;;4.10;;
67986;SDS011;54767;53.800;15.956;2023-08-01T10:19:34;4.90;;;3.90;;
67986;SDS011;54767;53.800;15.956;2023-08-01T10:22:04;4.60;;;4.00;;
67986;SDS011;54767;53.800;15.956;2023-08-01T10:24:35;4.70;;;3.90;;
67986;SDS011;54767;53.800;15.956;2023-08-01T10:27:13;4.60;;;4.10;;
67986;SDS011;54767;53.800;15.956;2023-08-01T10:30:02;7.00;;;4.30;;
67986;SDS011;54767;53.800;15.956;2023-08-01T10:32:33;4.50;;;4.10;;
67986;SDS011;54767;53.800;15.956;2023-08-01T10:35:03;8.80;;;3.90;;
67986;SDS011;54767;53.800;15.956;2023-08-01T10:37:44;4.90;;;4.10;;
67986;SDS011;54767;53.800;15.956;2023-08-01T10:40:41;4.80;;;4.00;;
67986;SDS011;54767;53.800;15.956;2023-08-01T10:43:20;6.10;;;4.00;;
67986;SDS011;54767;53.800;15.956;2023-08-01T10:46:02;4.70;;;4.10;;
67986;SDS011;54767;53.800;15.956;2023-08-01T10:48:31;4.20;;;3.80;;
67986;SDS011;54767;53.800;15.956;2023-08-01T10:51:00;5.20;;;3.50;;
67986;SDS011;54767;53.800;15.956;2023-08-01T10:53:37;3.70;;;3.40;;
67986;SDS011;54767;53.800;15.956;2023-08-01T10:56:16;4.20;;;3.40;;
67986;SDS011;54767;53.800;15.956;2023-08-01T10:58:46;3.40;;;3.10;;
67986;SDS011;54767;53.800;15.956;2023-08-01T11:01:15;3.70;;;3.40;;
67986;SDS011;54767;53.800;15.956;2023-08-01T11:03:51;4.40;;;3.70;;
67986;SDS011;54767;53.800;15.956;2023-08-01T11:06:20;5.10;;;3.60;;
67986;SDS011;54767;53.800;15.956;2023-08-01T11:08:50;3.90;;;3.50;;
67986;SDS011;54767;53.800;15.956;2023-08-01T11:11:23;3.70;;;3.40;;
67986;SDS011;54767;53.800;15.956;2023-08-01T11:13:52;3.80;;;3.30;;
67986;SDS011;54767;53.800;15.956;2023-08-01T11:17:01;3.40;;;3.10;;
67986;SDS011;54767;53.800;15.956;2023-08-01T11:19:51;5.70;;;3.20;;
67986;SDS011;54767;53.800;15.956;2023-08-01T11:22:28;3.90;;;3.00;;
67986;SDS011;54767;53.800;15.956;2023-08-01T11:24:58;3.50;;;3.00;;
67986;SDS011;54767;53.800;15.956;2023-08-01T11:27:28;3.50;;;3.10;;
67986;SDS011;54767;53.800;15.956;2023-08-01T11:29:57;3.50;;;2.80;;
67986;SDS011;54767;53.800;15.956;2023-08-01T11:32:35;3.20;;;2.90;;
67986;SDS011;54767;53.800;15.956;2023-08-01T11:35:04;3.80;;;3.00;;
67986;SDS011;54767;53.800;15.956;2023-08-01T11:37:33;3.30;;;3.00;;
67986;SDS011;54767;53.800;15.956;2023-08-01T11:40:03;3.00;;;2.80;;
67986;SDS011;54767;53.800;15.956;2023-08-01T11:42:32;3.60;;;2.60;;
67986;SDS011;54767;53.800;15.956;2023-08-01T11:45:08;3.40;;;2.50;;
67986;SDS011;54767;53.800;15.956;2023-08-01T11:47:38;3.80;;;2.70;;
67986;SDS011;54767;53.800;15.956;2023-08-01T11:50:13;2.70;;;2.50;;
67986;SDS011;54767;53.800;15.956;2023-08-01T11:52:46;2.80;;;2.60;;
67986;SDS011;54767;53.800;15.956;2023-08-01T11:55:22;2.80;;;2.60;;
67986;SDS011;54767;53.800;15.956;2023-08-01T12:01:28;4.30;;;2.40;;
67986;SDS011;54767;53.800;15.956;2023-08-01T12:04:30;2.60;;;2.40;;
67986;SDS011;54767;53.800;15.956;2023-08-01T12:10:02;4.80;;;2.30;;
67986;SDS011;54767;53.800;15.956;2023-08-01T12:12:43;5.30;;;4.70;;
67986;SDS011;54767;53.800;15.956;2023-08-01T12:15:31;9.30;;;8.50;;
67986;SDS011;54767;53.800;15.956;2023-08-01T12:18:11;5.20;;;4.80;;
67986;SDS011;54767;53.800;15.956;2023-08-01T12:26:19;4.30;;;3.90;;
67986;SDS011;54767;53.800;15.956;2023-08-01T12:42:51;3.20;;;2.90;;
67986;SDS011;54767;53.800;15.956;2023-08-01T12:46:03;3.10;;;2.90;;
67986;SDS011;54767;53.800;15.956;2023-08-01T12:48:52;3.00;;;2.70;;
67986;SDS011;54767;53.800;15.956;2023-08-01T12:51:22;2.70;;;2.50;;
67986;SDS011;54767;53.800;15.956;2023-08-01T12:53:50;2.70;;;2.50;;
67986;SDS011;54767;53.800;15.956;2023-08-01T12:56:25;2.70;;;2.40;;
67986;SDS011;54767;53.800;15.956;2023-08-01T12:58:54;3.10;;;2.80;;
67986;SDS011;54767;53.800;15.956;2023-08-01T13:01:22;3.10;;;2.90;;
67986;SDS011;54767;53.800;15.956;2023-08-01T13:03:52;2.80;;;2.40;;
67986;SDS011;54767;53.800;15.956;2023-08-01T13:06:30;2.60;;;2.40;;
67986;SDS011;54767;53.800;15.956;2023-08-01T13:09:00;4.80;;;2.30;;
67986;SDS011;54767;53.800;15.956;2023-08-01T13:11:29;2.90;;;2.30;;
67986;SDS011;54767;53.800;15.956;2023-08-01T13:13:57;2.60;;;2.40;;
67986;SDS011;54767;53.800;15.956;2023-08-01T13:17:05;2.50;;;2.40;;
67986;SDS011;54767;53.800;15.956;2023-08-01T13:19:33;2.60;;;2.40;;
67986;SDS011;54767;53.800;15.956;2023-08-01T13:22:02;2.70;;;2.50;;
67986;SDS011;54767;53.800;15.956;2023-08-01T13:24:31;3.10;;;2.70;;
67986;SDS011;54767;53.800;15.956;2023-08-01T13:28:00;2.30;;;2.20;;
67986;SDS011;54767;53.800;15.956;2023-08-01T13:30:49;2.40;;;2.20;;
67986;SDS011;54767;53.800;15.956;2023-08-01T13:33:18;3.30;;;2.40;;
67986;SDS011;54767;53.800;15.956;2023-08-01T13:35:46;2.40;;;2.20;;
67986;SDS011;54767;53.800;15.956;2023-08-01T13:38:18;2.90;;;2.30;;
67986;SDS011;54767;53.800;15.956;2023-08-01T13:40:46;3.00;;;2.30;;
67986;SDS011;54767;53.800;15.956;2023-08-01T13:43:17;2.60;;;2.40;;
67986;SDS011;54767;53.800;15.956;2023-08-01T13:45:49;2.50;;;2.40;;
67986;SDS011;54767;53.800;15.956;2023-08-01T13:48:21;2.40;;;2.20;;
67986;SDS011;54767;53.800;15.956;2023-08-01T13:50:50;2.40;;;2.10;;
67986;SDS011;54767;53.800;15.956;2023-08-01T13:53:19;3.00;;;2.30;;
67986;SDS011;54767;53.800;15.956;2023-08-01T13:55:49;2.20;;;2.10;;
67986;SDS011;54767;53.800;15.956;2023-08-01T14:00:53;1.90;;;1.70;;
67986;SDS011;54767;53.800;15.956;2023-08-01T14:04:02;2.40;;;2.20;;
67986;SDS011;54767;53.800;15.956;2023-08-01T14:06:36;2.40;;;1.90;;
67986;SDS011;54767;53.800;15.956;2023-08-01T14:09:21;4.70;;;2.00;;
67986;SDS011;54767;53.800;15.956;2023-08-01T14:15:09;4.10;;;2.30;;
67986;SDS011;54767;53.800;15.956;2023-08-01T14:18:16;2.30;;;2.10;;
67986;SDS011;54767;53.800;15.956;2023-08-01T14:20:45;2.80;;;2.10;;
67986;SDS011;54767;53.800;15.956;2023-08-01T14:23:43;4.40;;;2.00;;
67986;SDS011;54767;53.800;15.956;2023-08-01T14:26:12;1.60;;;1.30;;
67986;SDS011;54767;53.800;15.956;2023-08-01T14:28:41;3.60;;;1.20;;
67986;SDS011;54767;53.800;15.956;2023-08-01T14:31:10;2.50;;;0.60;;
67986;SDS011;54767;53.800;15.956;2023-08-01T14:33:39;5.30;;;1.00;;
67986;SDS011;54767;53.800;15.956;2023-08-01T14:36:12;1.80;;;0.80;;
67986;SDS011;54767;53.800;15.956;2023-08-01T14:38:51;2.80;;;0.70;;
67986;SDS011;54767;53.800;15.956;2023-08-01T14:41:51;3.40;;;0.90;;
67986;SDS011;54767;53.800;15.956;2023-08-01T14:44:33;3.30;;;2.00;;
67986;SDS011;54767;53.800;15.956;2023-08-01T14:47:02;2.70;;;2.50;;
67986;SDS011;54767;53.800;15.956;2023-08-01T14:49:30;6.60;;;3.60;;
67986;SDS011;54767;53.800;15.956;2023-08-01T14:51:59;7.20;;;3.60;;
67986;SDS011;54767;53.800;15.956;2023-08-01T14:54:53;6.50;;;2.60;;
67986;SDS011;54767;53.800;15.956;2023-08-01T14:57:25;4.60;;;3.50;;
67986;SDS011;54767;53.800;15.956;2023-08-01T14:59:56;7.10;;;3.60;;
67986;SDS011;54767;53.800;15.956;2023-08-01T15:02:27;3.90;;;3.00;;
67986;SDS011;54767;53.800;15.956;2023-08-01T15:05:01;2.50;;;1.50;;
67986;SDS011;54767;53.800;15.956;2023-08-01T15:07:34;4.70;;;2.10;;
67986;SDS011;54767;53.800;15.956;2023-08-01T15:10:40;4.40;;;2.10;;
67986;SDS011;54767;53.800;15.956;2023-08-01T15:13:22;5.00;;;2.60;;
67986;SDS011;54767;53.800;15.956;2023-08-01T15:16:01;5.30;;;3.20;;
67986;SDS011;54767;53.800;15.956;2023-08-01T15:18:30;2.40;;;2.10;;
67986;SDS011;54767;53.800;15.956;2023-08-01T15:20:59;4.20;;;1.20;;
67986;SDS011;54767;53.800;15.956;2023-08-01T15:23:34;4.70;;;1.40;;
67986;SDS011;54767;53.800;15.956;2023-08-01T15:26:06;5.00;;;2.80;;
67986;SDS011;54767;53.800;15.956;2023-08-01T15:28:35;4.30;;;2.20;;
67986;SDS011;54767;53.800;15.956;2023-08-01T15:31:07;3.20;;;1.90;;
67986;SDS011;54767;53.800;15.956;2023-08-01T15:33:40;1.80;;;1.10;;
67986;SDS011;54767;53.800;15.956;2023-08-01T15:36:16;3.50;;;1.20;;
67986;SDS011;54767;53.800;15.956;2023-08-01T15:39:12;2.60;;;1.10;;
67986;SDS011;54767;53.800;15.956;2023-08-01T15:42:01;2.00;;;0.90;;
67986;SDS011;54767;53.800;15.956;2023-08-01T15:44:31;4.40;;;1.20;;
67986;SDS011;54767;53.800;15.956;2023-08-01T15:47:06;3.80;;;1.30;;
67986;SDS011;54767;53.800;15.956;2023-08-01T15:50:58;14.80;;;6.10;;
67986;SDS011;54767;53.800;15.956;2023-08-01T15:53:50;11.90;;;4.80;;
67986;SDS011;54767;53.800;15.956;2023-08-01T15:56:19;4.70;;;2.50;;
67986;SDS011;54767;53.800;15.956;2023-08-01T15:58:50;1.90;;;1.30;;
67986;SDS011;54767;53.800;15.956;2023-08-01T16:02:08;5.00;;;1.70;;
67986;SDS011;54767;53.800;15.956;2023-08-01T16:04:38;2.70;;;1.40;;
67986;SDS011;54767;53.800;15.956;2023-08-01T16:07:09;3.50;;;1.40;;
67986;SDS011;54767;53.800;15.956;2023-08-01T16:09:41;2.80;;;1.60;;
67986;SDS011;54767;53.800;15.956;2023-08-01T16:12:13;2.50;;;1.80;;
67986;SDS011;54767;53.800;15.956;2023-08-01T16:14:42;1.70;;;1.60;;
67986;SDS011;54767;53.800;15.956;2023-08-01T16:17:13;2.40;;;1.50;;
67986;SDS011;54767;53.800;15.956;2023-08-01T16:19:43;2.30;;;1.40;;
67986;SDS011;54767;53.800;15.956;2023-08-01T16:22:12;2.10;;;1.30;;